Time;durP1;ratioP1;P1;durP2;ratioP2;P2;SDS_P1;SDS_P2;PMS_P1;PMS_P2;Temp;Humidity;BMP_temperature;BMP_pressure;BME280_temperature;BME280_humidity;BME280_pressure;Samples;Min_cycle;Max_cycle;Signal;HPM_P1;HPM_P2
2022/04/22 00:02:15;;;;;;;9.30;7.00;;;;;;100112.13;;;;107231;1274;66418;-32
2022/04/22 00:04:46;;;;;;;8.70;7.20;;;;;;100110.68;;;;107225;1274;64730;-33
2022/04/22 00:07:13;;;;;;;9.40;6.80;;;;;;100108.84;;;;107238;1274;64737;-33
2022/04/22 00:09:40;;;;;;;8.70;6.60;;;;;;100110.15;;;;107151;1274;64747;-32
2022/04/22 00:12:11;;;;;;;9.20;6.90;;;;;;100112.91;;;;107252;1274;64785;-33
2022/04/22 00:14:38;;;;;;;8.80;6.80;;;;;;100111.60;;;;107269;1274;66973;-33
2022/04/22 00:17:08;;;;;;;9.40;7.20;;;;;;100111.77;;;;107251;1274;64753;-32
2022/04/22 00:19:35;;;;;;;9.20;7.10;;;;;;100112.18;;;;107218;1274;64869;-33
2022/04/22 00:22:02;;;;;;;9.60;7.20;;;;;;100113.13;;;;107233;1274;65107;-33
2022/04/22 00:24:33;;;;;;;9.70;7.10;;;;;;100112.45;;;;107238;1274;64929;-32
2022/04/22 00:27:03;;;;;;;9.70;7.30;;;;;;100110.39;;;;107253;1274;64921;-33
2022/04/22 00:29:33;;;;;;;9.30;7.40;;;;;;100109.02;;;;107226;1274;64834;-33
2022/04/22 00:32:00;;;;;;;10.20;7.30;;;;;;100109.92;;;;107234;1274;64859;-33
2022/04/22 00:34:28;;;;;;;9.40;7.50;;;;;;100110.90;;;;107178;1274;64776;-32
2022/04/22 00:36:55;;;;;;;9.70;7.00;;;;;;100113.99;;;;107264;1274;64734;-32
2022/04/22 00:39:22;;;;;;;10.50;8.40;;;;;;100112.59;;;;107237;1275;67851;-32
2022/04/22 00:41:49;;;;;;;10.00;7.80;;;;;;100112.65;;;;107235;1274;64775;-32
2022/04/22 00:44:17;;;;;;;9.50;7.70;;;;;;100112.59;;;;107155;1274;64596;-34
2022/04/22 00:46:47;;;;;;;11.40;8.00;;;;;;100112.14;;;;107233;1274;64898;-33
2022/04/22 00:49:18;;;;;;;10.70;7.70;;;;;;100111.71;;;;107237;1274;64879;-32
2022/04/22 00:51:45;;;;;;;9.60;7.70;;;;;;100111.52;;;;107247;1274;65860;-35
2022/04/22 00:54:13;;;;;;;9.80;7.40;;;;;;100109.20;;;;107222;1274;64836;-33
2022/04/22 00:56:44;;;;;;;9.80;7.30;;;;;;100108.20;;;;107200;1274;64763;-33
2022/04/22 00:59:14;;;;;;;10.30;8.10;;;;;;100103.42;;;;107156;1274;64737;-33
2022/04/22 01:01:45;;;;;;;9.90;8.20;;;;;;100102.84;;;;107223;1274;64759;-33
2022/04/22 01:09:47;;;;;;;11.30;7.20;;;;;;100103.32;;;;107235;1273;64764;-33
2022/04/22 01:12:19;;;;;;;12.30;8.10;;;;;;100101.35;;;;107177;1277;64936;-32
2022/04/22 01:14:49;;;;;;;10.30;8.10;;;;;;100105.35;;;;107221;1274;64992;-32
2022/04/22 01:17:16;;;;;;;9.70;7.50;;;;;;100105.05;;;;107237;1274;67619;-33
2022/04/22 01:19:43;;;;;;;10.20;7.40;;;;;;100109.62;;;;107242;1274;64890;-36
2022/04/22 01:22:13;;;;;;;10.10;7.50;;;;;;100108.95;;;;107240;1274;64807;-33
2022/04/22 01:24:41;;;;;;;9.30;7.00;;;;;;100109.57;;;;107253;1274;64748;-32
2022/04/22 01:27:10;;;;;;;9.20;6.80;;;;;;100109.67;;;;107248;1274;64753;-34
2022/04/22 01:29:37;;;;;;;9.70;6.70;;;;;;100113.45;;;;107266;1274;66580;-33
2022/04/22 01:32:08;;;;;;;10.10;7.50;;;;;;100115.05;;;;107204;1274;65421;-32
2022/04/22 01:34:35;;;;;;;9.60;7.60;;;;;;100117.27;;;;107239;1274;64695;-32
2022/04/22 01:37:02;;;;;;;10.70;7.60;;;;;;100116.77;;;;107229;1274;64855;-32
2022/04/22 01:39:33;;;;;;;9.60;7.20;;;;;;100116.89;;;;107243;1274;64764;-32
2022/04/22 01:42:04;;;;;;;9.20;7.10;;;;;;100114.86;;;;107240;1275;66113;-33
2022/04/22 01:44:35;;;;;;;9.70;6.90;;;;;;100115.07;;;;107264;1274;65172;-34
2022/04/22 01:47:07;;;;;;;9.30;7.20;;;;;;100112.48;;;;107248;1272;64843;-32
2022/04/22 01:49:34;;;;;;;9.50;6.60;;;;;;100113.57;;;;107228;1274;64751;-33
2022/04/22 01:52:01;;;;;;;8.70;7.00;;;;;;100114.52;;;;107262;1274;64846;-33
2022/04/22 01:54:29;;;;;;;9.70;7.00;;;;;;100112.50;;;;107241;1274;67121;-33
2022/04/22 01:56:59;;;;;;;8.50;6.70;;;;;;100111.75;;;;107221;1274;64868;-32
2022/04/22 01:59:26;;;;;;;7.90;6.50;;;;;;100113.86;;;;107217;1274;64815;-33
2022/04/22 02:01:54;;;;;;;9.80;7.30;;;;;;100110.37;;;;107161;1275;64848;-32
2022/04/22 02:04:25;;;;;;;8.90;6.10;;;;;;100111.74;;;;107256;1274;64702;-33
2022/04/22 02:06:52;;;;;;;9.40;6.70;;;;;;100109.13;;;;107265;1274;66111;-32
2022/04/22 02:09:19;;;;;;;8.10;6.40;;;;;;100105.77;;;;107213;1275;64716;-32
2022/04/22 02:11:46;;;;;;;8.80;6.60;;;;;;100105.74;;;;107240;1274;64916;-33
2022/04/22 02:14:16;;;;;;;8.70;6.50;;;;;;100104.94;;;;107209;1274;64741;-33
2022/04/22 02:16:44;;;;;;;9.10;6.70;;;;;;100103.35;;;;107222;1274;64865;-32
2022/04/22 02:19:14;;;;;;;7.80;5.40;;;;;;100104.33;;;;107258;1274;66650;-33
2022/04/22 02:21:45;;;;;;;9.20;6.30;;;;;;100102.42;;;;107192;1274;64709;-33
2022/04/22 02:24:13;;;;;;;8.70;6.30;;;;;;100102.91;;;;107248;1274;64777;-33
2022/04/22 02:29:32;;;;;;;8.40;5.80;;;;;;100108.76;;;;107202;1274;64970;-33
2022/04/22 02:32:00;;;;;;;7.90;5.60;;;;;;100112.65;;;;107258;1274;65921;-33
2022/04/22 02:34:31;;;;;;;8.00;5.90;;;;;;100113.09;;;;107242;1274;64840;-33
2022/04/22 02:36:58;;;;;;;8.10;5.70;;;;;;100115.09;;;;107228;1274;64840;-32
2022/04/22 02:39:28;;;;;;;7.80;5.60;;;;;;100112.90;;;;107235;1274;64751;-31
2022/04/22 02:47:29;;;;;;;7.70;5.60;;;;;;100120.35;;;;107243;1274;64792;-32
2022/04/22 02:50:00;;;;;;;7.40;5.30;;;;;;100118.38;;;;107237;1273;64718;-32
2022/04/22 02:52:30;;;;;;;8.50;5.50;;;;;;100122.69;;;;107251;1274;64744;-32
2022/04/22 02:55:01;;;;;;;7.00;5.10;;;;;;100122.39;;;;107189;1274;64775;-33
2022/04/22 02:57:31;;;;;;;7.50;5.50;;;;;;100120.53;;;;107236;1274;66448;-33
2022/04/22 03:00:02;;;;;;;7.50;4.90;;;;;;100122.64;;;;107211;1274;64894;-33
2022/04/22 03:02:29;;;;;;;7.10;5.00;;;;;;100120.88;;;;107243;1274;64775;-32
2022/04/22 03:04:59;;;;;;;7.00;5.00;;;;;;100120.52;;;;107226;1274;64731;-33
2022/04/22 03:07:26;;;;;;;7.30;5.10;;;;;;100119.77;;;;107265;1274;64972;-33
2022/04/22 03:09:53;;;;;;;6.80;4.90;;;;;;100119.64;;;;107211;1274;64877;-33
2022/04/22 03:12:24;;;;;;;7.30;5.00;;;;;;100119.75;;;;107222;1274;64761;-33
2022/04/22 03:14:51;;;;;;;7.40;4.70;;;;;;100120.02;;;;107223;1274;64893;-33
2022/04/22 03:17:19;;;;;;;7.90;4.70;;;;;;100119.67;;;;107242;1274;64837;-33
2022/04/22 03:19:46;;;;;;;7.60;4.50;;;;;;100121.76;;;;107257;1274;64896;-32
2022/04/22 03:22:13;;;;;;;6.60;4.80;;;;;;100121.73;;;;107207;1274;64901;-32
2022/04/22 03:24:43;;;;;;;7.00;4.20;;;;;;100126.46;;;;107249;1274;64875;-32
2022/04/22 03:27:11;;;;;;;6.40;4.60;;;;;;100126.33;;;;107240;1274;64830;-33
2022/04/22 03:29:38;;;;;;;6.90;4.70;;;;;;100124.37;;;;107241;1274;64785;-32
2022/04/22 03:32:06;;;;;;;6.70;4.30;;;;;;100128.18;;;;107264;1274;64876;-32
2022/04/22 03:34:37;;;;;;;6.30;4.30;;;;;;100127.30;;;;107267;1274;66164;-33
2022/04/22 03:37:06;;;;;;;6.10;4.20;;;;;;100130.13;;;;107250;1274;64823;-33
2022/04/22 03:39:33;;;;;;;7.10;4.00;;;;;;100132.62;;;;107256;1274;64743;-32
2022/04/22 03:42:04;;;;;;;6.50;4.20;;;;;;100134.04;;;;107235;1274;64796;-33
2022/04/22 03:44:32;;;;;;;5.90;3.80;;;;;;100131.06;;;;107256;1274;64819;-33
2022/04/22 03:47:07;;;;;;;6.50;4.00;;;;;;100130.92;;;;107265;1274;65968;-32
2022/04/22 03:49:38;;;;;;;6.30;4.30;;;;;;100130.00;;;;107248;1274;65057;-33
2022/04/22 03:52:08;;;;;;;5.60;3.80;;;;;;100126.71;;;;107258;1274;64858;-33
2022/04/22 03:54:38;;;;;;;5.80;3.80;;;;;;100129.98;;;;107204;1273;64869;-32
2022/04/22 03:59:57;;;;;;;5.70;3.50;;;;;;100130.30;;;;107236;1274;65958;-32
2022/04/22 04:02:24;;;;;;;5.60;3.80;;;;;;100134.38;;;;107256;1274;64770;-32
2022/04/22 04:04:54;;;;;;;5.70;3.70;;;;;;100135.08;;;;107250;1274;64834;-31
2022/04/22 04:07:24;;;;;;;5.50;3.50;;;;;;100137.68;;;;107212;1274;64906;-33
2022/04/22 04:18:15;;;;;;;6.30;3.90;;;;;;100146.22;;;;107217;1274;64786;-33
2022/04/22 04:23:34;;;;;;;5.50;3.40;;;;;;100141.39;;;;107245;1274;64754;-33
2022/04/22 04:26:06;;;;;;;5.50;3.30;;;;;;100141.70;;;;107209;1274;66465;-33
2022/04/22 04:28:35;;;;;;;5.40;3.10;;;;;;100143.86;;;;107259;1273;64859;-32
2022/04/22 04:31:04;;;;;;;5.20;3.00;;;;;;100143.08;;;;107239;1274;64835;-33
2022/04/22 04:33:31;;;;;;;5.90;3.00;;;;;;100144.06;;;;107156;1274;64783;-31
2022/04/22 04:36:01;;;;;;;5.00;3.10;;;;;;100149.03;;;;107219;1274;64949;-31
2022/04/22 04:38:32;;;;;;;5.00;3.10;;;;;;100146.92;;;;107236;1273;65865;-33
2022/04/22 04:41:04;;;;;;;5.30;2.90;;;;;;100139.18;;;;107243;1274;64727;-33
2022/04/22 04:43:38;;;;;;;5.30;2.60;;;;;;100137.02;;;;107215;1273;64753;-33
2022/04/22 04:46:12;;;;;;;5.40;3.10;;;;;;100140.42;;;;107100;1274;64853;-33
2022/04/22 04:48:40;;;;;;;5.20;3.00;;;;;;100141.58;;;;107092;1274;64728;-33
2022/04/22 04:51:10;;;;;;;4.70;2.80;;;;;;100146.58;;;;107263;1274;65877;-33
2022/04/22 04:53:41;;;;;;;5.00;2.90;;;;;;100146.27;;;;107165;1274;64828;-32
2022/04/22 04:56:09;;;;;;;4.50;2.70;;;;;;100156.96;;;;107088;1275;64815;-32
2022/04/22 04:58:36;;;;;;;5.20;3.10;;;;;;100164.37;;;;107228;1274;64757;-32
2022/04/22 05:01:07;;;;;;;5.10;2.90;;;;;;100165.37;;;;107240;1274;64874;-32
2022/04/22 05:03:34;;;;;;;6.50;3.10;;;;;;100166.70;;;;107239;1274;65257;-31
2022/04/22 05:06:05;;;;;;;5.00;3.20;;;;;;100167.86;;;;107176;1274;65025;-31
2022/04/22 05:08:35;;;;;;;5.90;3.20;;;;;;100169.14;;;;107244;1274;65845;-33
2022/04/22 05:11:03;;;;;;;5.80;3.40;;;;;;100172.80;;;;107236;1274;65190;-32
2022/04/22 05:13:33;;;;;;;5.10;3.20;;;;;;100169.61;;;;107261;1274;64869;-33
2022/04/22 05:16:00;;;;;;;5.20;2.80;;;;;;100169.98;;;;107150;1274;66128;-33
2022/04/22 05:18:28;;;;;;;6.20;3.00;;;;;;100168.69;;;;107249;1274;64945;-33
2022/04/22 05:20:56;;;;;;;5.70;3.00;;;;;;100166.80;;;;107247;1274;64944;-33
2022/04/22 05:23:23;;;;;;;5.50;2.80;;;;;;100177.14;;;;107245;1274;64919;-33
2022/04/22 05:25:53;;;;;;;4.70;2.80;;;;;;100173.62;;;;107254;1274;64888;-33
2022/04/22 05:28:21;;;;;;;5.00;3.10;;;;;;100176.48;;;;107244;1274;66458;-32
2022/04/22 05:33:40;;;;;;;5.70;2.80;;;;;;100182.16;;;;107245;1274;65878;-32
2022/04/22 05:36:07;;;;;;;4.50;2.70;;;;;;100181.35;;;;107214;1274;64865;-32
2022/04/22 05:38:38;;;;;;;4.80;2.60;;;;;;100184.63;;;;107246;1274;65148;-32
2022/04/22 05:41:08;;;;;;;4.50;2.70;;;;;;100182.53;;;;107213;1274;65752;-33
2022/04/22 05:43:38;;;;;;;4.60;2.80;;;;;;100183.81;;;;107213;1274;64831;-33
2022/04/22 05:46:05;;;;;;;5.00;2.80;;;;;;100181.88;;;;107228;1274;64703;-32
2022/04/22 05:48:32;;;;;;;6.10;2.70;;;;;;100184.89;;;;107219;1274;64734;-33
2022/04/22 05:51:02;;;;;;;4.60;2.50;;;;;;100187.83;;;;107275;1274;64719;-33
2022/04/22 05:53:29;;;;;;;5.20;2.60;;;;;;100186.58;;;;107225;1274;66407;-32
2022/04/22 05:55:57;;;;;;;5.20;2.90;;;;;;100187.06;;;;107204;1274;64587;-33
2022/04/22 05:58:27;;;;;;;5.40;3.10;;;;;;100188.83;;;;107247;1274;64881;-33
2022/04/22 06:00:57;;;;;;;5.20;2.90;;;;;;100192.05;;;;107193;1274;64878;-32
2022/04/22 06:03:30;;;;;;;5.10;2.80;;;;;;100191.50;;;;107154;1274;64786;-32
2022/04/22 06:05:57;;;;;;;4.50;2.50;;;;;;100198.11;;;;107188;1274;65930;-31
2022/04/22 06:11:11;;;;;;;5.00;2.90;;;;;;100201.95;;;;107260;1274;64849;-35
2022/04/22 06:13:41;;;;;;;4.30;2.30;;;;;;100201.60;;;;107205;1274;64728;-32
2022/04/22 06:16:08;;;;;;;4.60;2.60;;;;;;100199.89;;;;107180;1274;65516;-32
2022/04/22 06:18:39;;;;;;;4.90;2.80;;;;;;100198.03;;;;107163;1274;65777;-32
2022/04/22 06:21:06;;;;;;;4.80;3.10;;;;;;100205.45;;;;107217;1274;64733;-32
2022/04/22 06:23:37;;;;;;;5.30;2.90;;;;;;100213.52;;;;107146;1274;64757;-32
2022/04/22 06:26:07;;;;;;;6.30;3.80;;;;;;100212.52;;;;107230;1274;64959;-32
2022/04/22 06:28:37;;;;;;;7.10;3.50;;;;;;100213.92;;;;107255;1273;64872;-32
2022/04/22 06:31:09;;;;;;;5.70;3.30;;;;;;100210.81;;;;107273;1274;64878;-32
2022/04/22 06:33:39;;;;;;;7.70;4.00;;;;;;100204.85;;;;107228;1272;64886;-33
2022/04/22 06:36:14;;;;;;;11.10;4.40;;;;;;100202.08;;;;107235;1274;64891;-32
2022/04/22 06:38:45;;;;;;;11.90;5.40;;;;;;100205.05;;;;107243;1274;64770;-37
2022/04/22 06:46:49;;;;;;;9.90;4.20;;;;;;100193.95;;;;107190;1274;64940;-32
2022/04/22 06:49:20;;;;;;;8.90;4.30;;;;;;100199.59;;;;107133;1274;64923;-32
2022/04/22 06:51:47;;;;;;;8.30;4.40;;;;;;100198.16;;;;107246;1274;64782;-33
2022/04/22 06:54:15;;;;;;;11.40;4.90;;;;;;100203.90;;;;107249;1274;65442;-33
2022/04/22 06:56:45;;;;;;;8.20;4.20;;;;;;100211.48;;;;107253;1274;66155;-33
2022/04/22 06:59:19;;;;;;;10.20;4.40;;;;;;100210.16;;;;107206;1272;64852;-32
2022/04/22 07:01:47;;;;;;;9.30;4.30;;;;;;100208.27;;;;107252;1274;64844;-34
2022/04/22 07:04:18;;;;;;;7.20;3.90;;;;;;100209.31;;;;107224;1274;64870;-33
2022/04/22 07:06:47;;;;;;;9.10;4.10;;;;;;100210.52;;;;107192;1274;64853;-31
2022/04/22 07:09:18;;;;;;;8.20;4.20;;;;;;100203.80;;;;107247;1273;66275;-32
2022/04/22 07:11:45;;;;;;;8.60;4.20;;;;;;100193.95;;;;107266;1274;64558;-32
2022/04/22 07:14:17;;;;;;;7.30;4.20;;;;;;100195.56;;;;107258;1274;64889;-34
2022/04/22 07:16:48;;;;;;;7.90;3.60;;;;;;100198.45;;;;107144;1274;66057;-33
2022/04/22 07:19:19;;;;;;;7.40;3.90;;;;;;100203.07;;;;107185;1274;64864;-32
2022/04/22 07:21:50;;;;;;;9.40;4.00;;;;;;100202.63;;;;107093;1276;65940;-32
2022/04/22 07:24:18;;;;;;;6.60;3.90;;;;;;100201.20;;;;107097;1274;64754;-29
2022/04/22 07:26:45;;;;;;;7.40;3.60;;;;;;100199.42;;;;107166;1274;64856;-32
2022/04/22 07:29:14;;;;;;;8.90;4.20;;;;;;100205.34;;;;107108;1274;64830;-32
2022/04/22 07:31:42;;;;;;;6.90;4.00;;;;;;100202.87;;;;107184;1274;64722;-30
2022/04/22 07:34:09;;;;;;;7.70;3.90;;;;;;100195.81;;;;107183;1274;65098;-30
2022/04/22 07:36:38;;;;;;;6.60;3.60;;;;;;100191.95;;;;107124;1274;64767;-34
2022/04/22 07:39:05;;;;;;;5.90;3.70;;;;;;100194.93;;;;107167;1274;64854;-34
2022/04/22 07:41:34;;;;;;;6.70;3.50;;;;;;100204.64;;;;107141;1274;64759;-30
2022/04/22 07:46:57;;;;;;;7.50;3.60;;;;;;100209.29;;;;107065;1274;68073;-30
2022/04/22 07:49:26;;;;;;;5.60;3.10;;;;;;100203.35;;;;107150;1274;64798;-32
2022/04/22 07:51:54;;;;;;;6.50;3.40;;;;;;100209.08;;;;107210;1274;64843;-34
2022/04/22 07:54:22;;;;;;;7.00;3.50;;;;;;100207.17;;;;107120;1274;64893;-35
2022/04/22 07:56:50;;;;;;;5.90;3.30;;;;;;100212.63;;;;107144;1274;64714;-35
2022/04/22 07:59:19;;;;;;;5.90;3.10;;;;;;100213.74;;;;107212;1274;65927;-34
2022/04/22 08:01:46;;;;;;;7.60;3.30;;;;;;100219.85;;;;107206;1274;64930;-35
2022/04/22 08:04:14;;;;;;;6.40;3.50;;;;;;100220.55;;;;107196;1274;64853;-30
2022/04/22 08:06:42;;;;;;;6.10;3.20;;;;;;100224.86;;;;107102;1275;64882;-30
2022/04/22 08:09:09;;;;;;;6.70;3.40;;;;;;100226.95;;;;107160;1274;64860;-33
2022/04/22 08:11:37;;;;;;;5.80;3.40;;;;;;100232.73;;;;107125;1274;66465;-34
2022/04/22 08:14:05;;;;;;;5.60;3.10;;;;;;100235.49;;;;107182;1274;64981;-31
2022/04/22 08:16:33;;;;;;;5.60;3.20;;;;;;100243.66;;;;107190;1274;64124;-30
2022/04/22 08:19:00;;;;;;;6.00;3.10;;;;;;100240.73;;;;107240;1274;64886;-32
2022/04/22 08:21:33;;;;;;;6.10;3.60;;;;;;100249.38;;;;107276;1274;64878;-31
2022/04/22 08:24:04;;;;;;;6.40;3.50;;;;;;100243.97;;;;107228;1274;67198;-33
2022/04/22 08:26:32;;;;;;;5.00;2.90;;;;;;100244.21;;;;107124;1274;64873;-32
2022/04/22 08:28:59;;;;;;;6.20;3.10;;;;;;100236.05;;;;107234;1274;64833;-32
2022/04/22 08:31:26;;;;;;;6.80;3.20;;;;;;100236.19;;;;107188;1274;63601;-33
2022/04/22 08:33:56;;;;;;;5.60;3.10;;;;;;100233.54;;;;107137;1274;64996;-34
2022/04/22 08:36:27;;;;;;;4.80;3.00;;;;;;100238.59;;;;107235;1274;65455;-33
2022/04/22 08:38:56;;;;;;;5.60;3.70;;;;;;100241.97;;;;107252;1274;64767;-32
2022/04/22 08:41:23;;;;;;;5.60;3.20;;;;;;100240.60;;;;107148;1274;64747;-34
2022/04/22 08:43:51;;;;;;;5.40;3.00;;;;;;100241.67;;;;107246;1274;64856;-38
2022/04/22 08:51:51;;;;;;;5.00;2.90;;;;;;100227.93;;;;107210;1274;64871;-35
2022/04/22 08:54:20;;;;;;;7.60;3.20;;;;;;100224.33;;;;107278;1274;64767;-34
2022/04/22 08:56:50;;;;;;;6.00;3.30;;;;;;100225.08;;;;107205;1274;64987;-38
2022/04/22 08:59:17;;;;;;;5.60;3.10;;;;;;100227.38;;;;107244;1274;64969;-31
2022/04/22 09:01:45;;;;;;;5.40;2.90;;;;;;100230.74;;;;107156;1274;67241;-34
2022/04/22 09:04:12;;;;;;;5.30;2.90;;;;;;100227.65;;;;107262;1274;64900;-33
2022/04/22 09:06:40;;;;;;;6.30;3.10;;;;;;100227.90;;;;107130;1274;64896;-34
2022/04/22 09:09:08;;;;;;;6.20;3.20;;;;;;100226.20;;;;107185;1274;64766;-33
2022/04/22 09:11:42;;;;;;;4.80;3.00;;;;;;100221.01;;;;107268;1274;64885;-36
2022/04/22 09:14:14;;;;;;;5.20;3.20;;;;;;100222.02;;;;107230;1273;66136;-33
2022/04/22 09:16:41;;;;;;;5.80;3.40;;;;;;100235.38;;;;107232;1273;64703;-29
2022/04/22 09:19:09;;;;;;;5.40;3.20;;;;;;100232.73;;;;107207;1274;64923;-31
2022/04/22 09:21:37;;;;;;;5.00;2.80;;;;;;100232.29;;;;107107;1274;64705;-36
2022/04/22 09:24:13;;;;;;;4.90;2.70;;;;;;100236.63;;;;107248;1274;64755;-37
2022/04/22 09:26:40;;;;;;;6.00;3.20;;;;;;100234.92;;;;107250;1274;66175;-30
2022/04/22 09:29:10;;;;;;;5.60;3.10;;;;;;100235.19;;;;107232;1274;65927;-30
2022/04/22 09:31:49;;;;;;;5.60;3.10;;;;;;100234.55;;;;107223;1274;64705;-30
2022/04/22 09:34:39;;;;;;;5.30;3.00;;;;;;100237.61;;;;107145;1274;64897;-29
2022/04/22 09:42:59;;;;;;;5.70;2.80;;;;;;100247.08;;;;107111;1274;64885;-31
2022/04/22 09:45:37;;;;;;;5.40;3.20;;;;;;100248.64;;;;107128;1274;64727;-31
2022/04/22 09:48:18;;;;;;;5.70;3.10;;;;;;100247.33;;;;107169;1274;64860;-30
2022/04/22 09:50:53;;;;;;;6.00;3.30;;;;;;100248.09;;;;107218;1274;64728;-28
2022/04/22 09:53:33;;;;;;;6.20;3.30;;;;;;100251.58;;;;107222;1274;67795;-31
2022/04/22 09:56:09;;;;;;;6.10;3.30;;;;;;100249.44;;;;107144;1274;64859;-30
2022/04/22 09:58:36;;;;;;;4.80;3.10;;;;;;100249.73;;;;107240;1274;64760;-33
2022/04/22 10:01:07;;;;;;;5.50;3.10;;;;;;100254.41;;;;107145;1274;64855;-35
2022/04/22 10:03:36;;;;;;;4.80;3.20;;;;;;100244.12;;;;107220;1274;64767;-33
2022/04/22 10:06:05;;;;;;;4.70;3.30;;;;;;100247.56;;;;107235;1274;66108;-33
2022/04/22 10:08:37;;;;;;;5.00;3.30;;;;;;100243.23;;;;107222;1274;64728;-32
2022/04/22 10:11:07;;;;;;;4.90;3.30;;;;;;100245.37;;;;107212;1274;65835;-32
2022/04/22 10:13:46;;;;;;;5.50;3.60;;;;;;100250.12;;;;107140;1274;65304;-32
2022/04/22 10:16:14;;;;;;;4.90;3.20;;;;;;100254.78;;;;107243;1274;63584;-28
2022/04/22 10:18:43;;;;;;;5.60;3.10;;;;;;100253.67;;;;107222;1274;64972;-28
2022/04/22 10:21:10;;;;;;;4.70;3.20;;;;;;100256.27;;;;107146;1274;64956;-31
2022/04/22 10:23:38;;;;;;;5.10;3.00;;;;;;100253.19;;;;107114;1274;64807;-38
2022/04/22 10:26:06;;;;;;;4.90;3.30;;;;;;100246.90;;;;107162;1274;64888;-30
2022/04/22 10:28:34;;;;;;;4.50;3.00;;;;;;100250.23;;;;107270;1272;64866;-32
2022/04/22 10:31:03;;;;;;;4.70;3.20;;;;;;100252.11;;;;107169;1274;67696;-31
2022/04/22 10:33:45;;;;;;;5.30;2.90;;;;;;100247.73;;;;107182;1274;64911;-30
2022/04/22 10:36:14;;;;;;;4.50;2.70;;;;;;100247.02;;;;107141;1274;66196;-32
2022/04/22 10:38:45;;;;;;;5.50;3.10;;;;;;100244.58;;;;107173;1274;64904;-30
2022/04/22 10:41:22;;;;;;;4.60;2.90;;;;;;100248.02;;;;107190;1274;64770;-32
2022/04/22 10:49:41;;;;;;;4.10;2.60;;;;;;100250.05;;;;107117;1274;64852;-31
2022/04/22 10:52:11;;;;;;;5.50;2.50;;;;;;100244.85;;;;107102;1274;64964;-30
2022/04/22 10:54:58;;;;;;;6.00;3.00;;;;;;100247.35;;;;107186;1274;64743;-44
2022/04/22 10:57:29;;;;;;;5.70;3.10;;;;;;100244.33;;;;107152;1274;67775;-29
2022/04/22 11:00:27;;;;;;;4.50;3.10;;;;;;100245.98;;;;107149;1274;64789;-29
2022/04/22 11:03:03;;;;;;;5.90;3.10;;;;;;100244.40;;;;107190;1274;64859;-29
2022/04/22 11:05:31;;;;;;;4.90;3.10;;;;;;100245.45;;;;107139;1274;64765;-30
2022/04/22 11:07:58;;;;;;;5.50;2.90;;;;;;100239.42;;;;107187;1274;65181;-30
2022/04/22 11:10:48;;;;;;;5.50;2.80;;;;;;100237.91;;;;107218;1273;66114;-30
2022/04/22 11:13:29;;;;;;;5.10;3.10;;;;;;100230.30;;;;107265;1274;64741;-29
2022/04/22 11:16:14;;;;;;;5.30;3.10;;;;;;100229.11;;;;107295;1274;65558;-41
2022/04/22 11:18:44;;;;;;;5.90;3.00;;;;;;100226.95;;;;107169;1274;64797;-35
2022/04/22 11:21:39;;;;;;;6.70;3.30;;;;;;100229.21;;;;107275;1274;65314;-33
2022/04/22 11:24:15;;;;;;;4.40;2.70;;;;;;100228.65;;;;107141;1274;66557;-34
2022/04/22 11:26:44;;;;;;;4.70;3.00;;;;;;100228.35;;;;107261;1274;64864;-33
2022/04/22 11:29:13;;;;;;;5.40;3.00;;;;;;100232.81;;;;107252;1274;64090;-30
2022/04/22 11:32:05;;;;;;;4.80;3.00;;;;;;100232.61;;;;107262;1274;64898;-31
2022/04/22 11:35:16;;;;;;;4.30;2.80;;;;;;100236.20;;;;107192;1274;64913;-30
2022/04/22 11:37:44;;;;;;;4.80;2.90;;;;;;100235.41;;;;107182;1274;67084;-30
2022/04/22 11:40:19;;;;;;;5.20;2.70;;;;;;100235.98;;;;107144;1274;64750;-30
2022/04/22 11:42:46;;;;;;;6.30;3.70;;;;;;100240.88;;;;107165;1274;64717;-30
2022/04/22 11:45:14;;;;;;;5.90;3.20;;;;;;100235.16;;;;107154;1274;64887;-30
2022/04/22 11:47:43;;;;;;;5.50;3.20;;;;;;100231.17;;;;107186;1274;64948;-30
2022/04/22 11:50:19;;;;;;;4.90;3.10;;;;;;100226.48;;;;107137;1274;66393;-41
2022/04/22 11:52:56;;;;;;;5.20;2.80;;;;;;100226.90;;;;107130;1274;64874;-34
2022/04/22 11:55:24;;;;;;;5.40;3.10;;;;;;100223.34;;;;107164;1274;64846;-29
2022/04/22 11:57:51;;;;;;;5.90;3.00;;;;;;100224.58;;;;107166;1274;64864;-30
2022/04/22 12:05:54;;;;;;;5.70;3.10;;;;;;100209.92;;;;107166;1274;64851;-33
2022/04/22 12:08:21;;;;;;;5.80;2.90;;;;;;100210.96;;;;107132;1274;64850;-29
2022/04/22 12:10:50;;;;;;;5.90;2.80;;;;;;100208.10;;;;107136;1274;64746;-29
2022/04/22 12:13:18;;;;;;;5.70;2.80;;;;;;100204.37;;;;107203;1274;65353;-31
2022/04/22 12:15:48;;;;;;;4.20;2.70;;;;;;100196.34;;;;106969;1274;336492;-29
2022/04/22 12:18:32;;;;;;;6.70;3.30;;;;;;100188.70;;;;107146;1274;64722;-26
2022/04/22 12:21:00;;;;;;;4.90;3.00;;;;;;100182.67;;;;107184;1274;64863;-28
2022/04/22 12:23:55;;;;;;;5.20;2.90;;;;;;100181.50;;;;107165;1274;64872;-28
2022/04/22 12:26:27;;;;;;;5.30;3.30;;;;;;100183.67;;;;107072;1274;63792;-32
2022/04/22 12:29:17;;;;;;;4.90;2.90;;;;;;100178.23;;;;107221;1274;67380;-32
2022/04/22 12:31:52;;;;;;;4.80;2.90;;;;;;100176.89;;;;107188;1274;64750;-27
2022/04/22 12:34:35;;;;;;;5.50;3.40;;;;;;100173.33;;;;107147;1274;64866;-28
2022/04/22 12:37:07;;;;;;;5.50;2.60;;;;;;100176.13;;;;107150;1274;65367;-29
2022/04/22 12:39:40;;;;;;;4.80;2.50;;;;;;100175.67;;;;107168;1274;65925;-29
2022/04/22 12:42:19;;;;;;;6.10;3.00;;;;;;100175.45;;;;107190;1274;66323;-29
2022/04/22 12:53:48;;;;;;;6.90;2.90;;;;;;100167.52;;;;107183;1274;64730;-29
2022/04/22 12:56:16;;;;;;;5.40;2.90;;;;;;100166.81;;;;107212;1274;64978;-27
2022/04/22 12:59:03;;;;;;;7.20;2.80;;;;;;100168.20;;;;107145;1274;64767;-28
2022/04/22 13:01:40;;;;;;;6.10;3.00;;;;;;100170.96;;;;107167;1274;64921;-29
2022/04/22 13:04:20;;;;;;;5.00;2.90;;;;;;100168.91;;;;107197;1274;64870;-26
2022/04/22 13:06:48;;;;;;;5.10;2.90;;;;;;100173.07;;;;107249;1274;62216;-31
2022/04/22 13:09:18;;;;;;;5.10;2.70;;;;;;100173.83;;;;107223;1274;64905;-30
2022/04/22 13:11:46;;;;;;;4.30;2.50;;;;;;100169.48;;;;107214;1274;64760;-31
2022/04/22 13:14:15;;;;;;;4.70;2.70;;;;;;100163.98;;;;107240;1274;64724;-31
2022/04/22 13:16:43;;;;;;;5.00;2.80;;;;;;100159.36;;;;107212;1274;64750;-30
2022/04/22 13:19:13;;;;;;;4.70;2.60;;;;;;100154.56;;;;107203;1274;64894;-29
2022/04/22 13:21:41;;;;;;;5.60;2.70;;;;;;100148.01;;;;107215;1274;64894;-27
2022/04/22 13:24:09;;;;;;;5.10;2.80;;;;;;100146.59;;;;107205;1274;65391;-27
2022/04/22 13:26:39;;;;;;;5.10;2.50;;;;;;100146.83;;;;107210;1274;64747;-27
2022/04/22 13:29:07;;;;;;;7.90;2.90;;;;;;100150.14;;;;107170;1273;64747;-28
2022/04/22 13:31:35;;;;;;;5.70;2.80;;;;;;100156.69;;;;107143;1274;64850;-29
2022/04/22 13:34:05;;;;;;;4.80;2.60;;;;;;100156.85;;;;107236;1274;65269;-28
2022/04/22 13:36:37;;;;;;;5.10;2.30;;;;;;100156.27;;;;107207;1274;64737;-33
2022/04/22 13:39:04;;;;;;;4.90;2.60;;;;;;100157.90;;;;107163;1273;64902;-29
2022/04/22 13:41:32;;;;;;;4.60;2.50;;;;;;100160.73;;;;107207;1274;64881;-28
2022/04/22 13:43:59;;;;;;;4.40;2.40;;;;;;100161.10;;;;107186;1274;64890;-28
2022/04/22 13:54:44;;;;;;;4.00;2.40;;;;;;100156.04;;;;107118;1274;64751;-28
2022/04/22 13:57:12;;;;;;;4.60;2.60;;;;;;100157.79;;;;107125;1274;64757;-27
2022/04/22 13:59:40;;;;;;;5.90;2.60;;;;;;100160.59;;;;107117;1274;66716;-29
2022/04/22 14:02:07;;;;;;;5.60;2.50;;;;;;100159.42;;;;107095;1274;64752;-27
2022/04/22 14:04:37;;;;;;;4.70;2.60;;;;;;100156.27;;;;107098;1274;64744;-27
2022/04/22 14:07:07;;;;;;;4.20;2.30;;;;;;100150.60;;;;107163;1274;64793;-30
2022/04/22 14:09:35;;;;;;;4.10;2.60;;;;;;100147.30;;;;107277;1272;65012;-30
2022/04/22 14:12:03;;;;;;;5.70;3.00;;;;;;100147.52;;;;107241;1274;64962;-32
2022/04/22 14:14:30;;;;;;;4.40;2.70;;;;;;100142.98;;;;107226;1274;64724;-31
2022/04/22 14:16:58;;;;;;;4.60;2.80;;;;;;100141.16;;;;107212;1274;64752;-29
2022/04/22 14:19:25;;;;;;;6.10;2.70;;;;;;100143.02;;;;107133;1274;64814;-30
2022/04/22 14:21:53;;;;;;;3.90;2.30;;;;;;100148.14;;;;107159;1274;64835;-32
2022/04/22 14:24:20;;;;;;;5.00;2.50;;;;;;100149.61;;;;107136;1274;66176;-48